Aérodrome :
LOGIN :

S'inscrire | Disclaimer

   EN    FR    IT 

 










Légende :    VFR   VFR Marginal   IFR   IFR Intensif   IFR Très Intensif
Visi : 
Plafond : 
>= 8 km
>= 3000ft
5 à 8 km
1000 à 3000 ft
1500m à 5 km
500 à 1000 ft
800 à 1500m
200 à 500 ft
< 800m
< 200 ft
Symboles :   Orages  Brouillard  Fortes neiges  Fortes précipitations  Vent > 20 kt
SIGMETs :   Divers  Orages  Givrage  Turbulence  Onde Orograph.  Cendres Volcan.







- Altitude de l'aérodrome : 587 ft
- Code IATA : XCR
- Voir les cartes d'approche


LFOK - Chalons Vatry

DERNIER METAR :
  • 121530Z AUTO 21010KT 9999 FEW024 BKN029 BKN036 03/02 Q1014 NOSIG

METARs EXPIRÉS :
  • 121500Z AUTO 22010KT 9999 FEW026 BKN037 OVC046 03/02 Q1013 TEMPO 4000 SHRASN BKN013
  • 121430Z AUTO 22011KT 9999 BKN035 BKN052 BKN066 03/02 Q1013 TEMPO 4000 SHRASN BKN013
  • 121400Z AUTO 22012KT 9999 FEW016 04/02 Q1012 TEMPO 4000 SHRASN BKN013
  • 121330Z AUTO 22011KT 9999 FEW045 04/02 Q1012 TEMPO 4000 SHRASN BKN013
  • 121300Z AUTO 22011KT 9999 FEW042 BKN060 04/02 Q1012 TEMPO 4000 SHRASN BKN013

TAF TAF LFOK
Valide du 12 à 12h jusqu'au 13 à 12h UTC


121100Z 1212/1312 23013KT 9999 BKN030
PROB30
TEMPO 1212/1216 4000 SHRASN BKN013
BECMG 1305/1307 3000 RADZ OVC007
PROB30
TEMPO 1307/1310 23020G30KT 1200 RASN
BECMG 1310/1312 9999 NSW
Pas de NOTAMs connus pour ce terrain.



MET'MAP, la Météo Aéronautique d'un coup d'oeil ! - Copyright ORBIFLY Décembre 2007 - Disclaimer

ORBIFLY MET'MAP TEAM :

Programmation & Développement : Alexandra Zaïnal
Conception & Développement : Baudouin d'Aumeries
Co-Programmation & Développement : Marc-Olivier Méhu
Soutien technique & logistique : Manuel Goepfert

Contact : metmap@orbifly.com




SOURCES & CREDITS :

   NOAA